createdAt,value
2017-01-27T00:00:05.296Z,99.99
2017-01-27T00:01:04.465Z,99.99
2017-01-27T00:02:05.292Z,99.99
2017-01-27T00:03:05.053Z,99.99
2017-01-27T00:04:05.053Z,99.99
2017-01-27T00:05:05.279Z,99.99
2017-01-27T00:06:05.986Z,99.99
2017-01-27T00:07:07.069Z,99.99
2017-01-27T00:08:07.349Z,99.99
2017-01-27T00:09:07.883Z,99.99
2017-01-27T00:10:06.226Z,99.99
2017-01-27T00:11:06.673Z,99.99
2017-01-27T00:12:05.290Z,99.99
2017-01-27T00:13:05.605Z,99.99
2017-01-27T00:14:05.316Z,99.99
2017-01-27T00:15:06.083Z,99.99
2017-01-27T00:16:05.342Z,99.99
2017-01-27T00:17:00.753Z,99.99
2017-01-27T00:18:00.739Z,99.99
2017-01-27T00:19:00.801Z,99.99
2017-01-27T00:20:00.757Z,99.99
2017-01-27T00:21:00.708Z,99.99
2017-01-27T00:22:02.563Z,99.99
2017-01-27T00:23:00.701Z,99.99
2017-01-27T00:24:00.715Z,99.99
2017-01-27T00:25:00.746Z,99.99
2017-01-27T00:26:00.709Z,99.99
2017-01-27T00:27:00.789Z,99.99
2017-01-27T00:28:00.722Z,99.99
2017-01-27T00:29:00.704Z,99.99
2017-01-27T00:30:00.702Z,99.99
2017-01-27T00:31:00.774Z,99.99
2017-01-27T00:32:00.741Z,99.99
2017-01-27T00:33:00.721Z,99.99
2017-01-27T00:34:00.731Z,99.99
2017-01-27T00:35:00.712Z,99.99
2017-01-27T00:36:00.702Z,99.99
2017-01-27T00:37:00.727Z,99.99
2017-01-27T00:38:00.720Z,99.99
2017-01-27T00:39:00.714Z,99.99
2017-01-27T00:40:00.820Z,99.99
2017-01-27T00:41:00.811Z,99.99
2017-01-27T00:42:00.721Z,99.99
2017-01-27T00:43:00.767Z,99.99
2017-01-27T00:44:00.741Z,99.99
2017-01-27T00:45:00.713Z,99.99
2017-01-27T00:46:00.716Z,99.99
2017-01-27T00:47:00.733Z,99.99
2017-01-27T00:48:00.714Z,99.99
2017-01-27T00:49:00.715Z,99.99
2017-01-27T00:50:00.796Z,99.99
2017-01-27T00:51:00.738Z,99.99
2017-01-27T00:52:00.775Z,99.99
2017-01-27T00:53:00.708Z,99.99
2017-01-27T00:54:00.727Z,99.99
2017-01-27T00:55:00.713Z,99.99
2017-01-27T00:56:00.722Z,99.99
2017-01-27T00:57:00.712Z,99.99
2017-01-27T00:58:00.732Z,99.99
2017-01-27T00:59:00.724Z,99.99
2017-01-27T01:00:00.746Z,99.99
2017-01-27T01:01:00.728Z,99.99
2017-01-27T01:02:00.732Z,99.99
2017-01-27T01:03:00.751Z,99.99
2017-01-27T01:04:00.718Z,99.99
2017-01-27T01:05:00.752Z,99.99
2017-01-27T01:06:00.766Z,99.99
2017-01-27T01:07:00.769Z,99.99
2017-01-27T01:08:00.729Z,99.99
2017-01-27T01:09:00.736Z,99.99
2017-01-27T01:10:00.744Z,99.99
2017-01-27T01:11:00.718Z,99.99
2017-01-27T01:12:00.729Z,99.99
2017-01-27T01:13:00.757Z,99.99
2017-01-27T01:14:00.727Z,99.99
2017-01-27T01:15:00.752Z,99.99
2017-01-27T01:16:00.735Z,99.99
2017-01-27T01:17:00.748Z,99.99
2017-01-27T01:18:00.760Z,99.99
2017-01-27T01:19:00.744Z,99.99
2017-01-27T01:20:00.778Z,99.99
2017-01-27T01:21:00.727Z,99.99
2017-01-27T01:22:00.760Z,99.99
2017-01-27T01:23:00.731Z,99.99
2017-01-27T01:24:00.733Z,99.99
2017-01-27T01:25:00.754Z,99.99
2017-01-27T01:26:00.746Z,99.99
2017-01-27T01:27:00.740Z,99.99
2017-01-27T01:28:00.732Z,99.99
2017-01-27T01:29:00.794Z,99.99
2017-01-27T01:30:00.751Z,99.99
2017-01-27T01:31:00.752Z,99.99
2017-01-27T01:32:00.743Z,99.99
2017-01-27T01:33:00.740Z,99.99
2017-01-27T01:34:00.780Z,99.99
2017-01-27T01:35:00.761Z,99.99
2017-01-27T01:36:00.738Z,99.99
2017-01-27T01:37:00.731Z,99.99
2017-01-27T01:38:00.748Z,99.99
2017-01-27T01:39:00.756Z,99.99
2017-01-27T01:40:00.754Z,99.99
2017-01-27T01:41:00.756Z,99.99
2017-01-27T01:42:00.751Z,99.99
2017-01-27T01:43:00.780Z,99.99
2017-01-27T01:44:00.765Z,99.99
2017-01-27T01:45:00.742Z,99.99
2017-01-27T01:46:00.753Z,99.99
2017-01-27T01:47:00.743Z,99.99
2017-01-27T01:48:00.745Z,99.99
2017-01-27T01:49:00.756Z,99.99
2017-01-27T01:50:00.762Z,99.99
2017-01-27T01:51:00.757Z,99.99
2017-01-27T01:52:00.756Z,99.99
2017-01-27T01:53:00.795Z,99.99
2017-01-27T01:54:00.790Z,99.99
2017-01-27T01:55:00.762Z,99.99
2017-01-27T01:56:00.774Z,99.99
2017-01-27T01:57:00.751Z,99.99
2017-01-27T01:58:00.766Z,99.99
2017-01-27T01:59:00.759Z,99.99
2017-01-27T02:00:00.761Z,99.99
2017-01-27T02:01:00.747Z,99.99
2017-01-27T02:02:00.755Z,99.99
2017-01-27T02:03:00.780Z,99.99
2017-01-27T02:04:00.754Z,99.99
2017-01-27T02:05:00.770Z,99.99
2017-01-27T02:06:00.752Z,99.99
2017-01-27T02:07:00.767Z,99.99
2017-01-27T02:08:00.760Z,99.99
2017-01-27T02:09:00.750Z,99.99
2017-01-27T02:10:00.769Z,99.99
2017-01-27T02:11:00.762Z,99.99
2017-01-27T02:12:00.765Z,99.99
2017-01-27T02:13:00.773Z,99.99
2017-01-27T02:14:00.775Z,99.99
2017-01-27T02:15:00.782Z,99.99
2017-01-27T02:16:00.778Z,99.99
2017-01-27T02:17:00.778Z,99.99
2017-01-27T02:18:00.771Z,99.99
2017-01-27T02:19:00.789Z,99.99
2017-01-27T02:20:00.770Z,99.99
2017-01-27T02:21:00.769Z,99.99
2017-01-27T02:22:00.766Z,99.99
2017-01-27T02:23:00.816Z,99.99
2017-01-27T02:24:00.794Z,99.99
2017-01-27T02:25:00.778Z,99.99
2017-01-27T02:26:00.776Z,99.99
2017-01-27T02:27:00.770Z,99.99
2017-01-27T02:28:00.787Z,99.99
2017-01-27T02:29:00.766Z,99.99
2017-01-27T02:30:00.772Z,99.99
2017-01-27T02:31:00.781Z,99.99
2017-01-27T02:32:00.767Z,99.99
2017-01-27T02:33:00.795Z,99.99
2017-01-27T02:34:00.782Z,99.99
2017-01-27T02:35:00.780Z,99.99
2017-01-27T02:36:00.799Z,99.99
2017-01-27T02:37:00.795Z,99.99
2017-01-27T02:38:00.782Z,99.99
2017-01-27T02:39:00.794Z,99.99
2017-01-27T02:40:00.792Z,99.99
2017-01-27T02:41:00.804Z,99.99
2017-01-27T02:42:00.798Z,99.99
2017-01-27T02:43:00.785Z,99.99
2017-01-27T02:44:00.778Z,99.99
2017-01-27T02:45:00.776Z,99.99
2017-01-27T02:46:00.825Z,99.99
2017-01-27T02:47:00.798Z,99.99
2017-01-27T02:48:00.792Z,99.99
2017-01-27T02:49:00.796Z,99.99
2017-01-27T02:50:00.791Z,99.99
2017-01-27T02:51:00.810Z,99.99
2017-01-27T02:52:00.801Z,99.99
2017-01-27T02:53:00.815Z,99.99
2017-01-27T02:54:00.805Z,99.99
2017-01-27T02:55:00.797Z,99.99
2017-01-27T02:56:00.788Z,99.99
2017-01-27T02:57:00.800Z,99.99
2017-01-27T02:58:00.783Z,99.99
2017-01-27T02:59:00.797Z,99.99
2017-01-27T03:00:00.783Z,99.99
2017-01-27T03:01:00.789Z,99.99
2017-01-27T03:02:00.792Z,99.99
2017-01-27T03:03:00.812Z,99.99
2017-01-27T03:04:00.792Z,99.99
2017-01-27T03:05:00.789Z,99.99
2017-01-27T03:06:00.824Z,99.99
2017-01-27T03:07:00.806Z,99.99
2017-01-27T03:08:00.795Z,99.99
2017-01-27T03:09:00.789Z,99.99
2017-01-27T03:10:00.796Z,99.99
2017-01-27T03:11:00.805Z,99.99
2017-01-27T03:12:00.795Z,99.99
2017-01-27T03:13:00.801Z,99.99
2017-01-27T03:14:00.803Z,99.99
2017-01-27T03:15:00.818Z,99.99
2017-01-27T03:16:00.809Z,99.99
2017-01-27T03:17:00.814Z,99.99
2017-01-27T03:18:00.794Z,99.99
2017-01-27T03:19:00.817Z,99.99
2017-01-27T03:20:00.800Z,99.99
2017-01-27T03:21:00.800Z,99.99
2017-01-27T03:22:00.800Z,99.99
2017-01-27T03:23:00.819Z,99.99
2017-01-27T03:24:00.801Z,99.99
2017-01-27T03:25:00.805Z,99.99
2017-01-27T03:26:00.801Z,99.99
2017-01-27T03:27:00.813Z,99.99
2017-01-27T03:28:00.800Z,99.99
2017-01-27T03:29:00.817Z,99.99
2017-01-27T03:30:00.803Z,99.99
2017-01-27T03:31:00.803Z,99.99
2017-01-27T03:32:00.820Z,99.99
2017-01-27T03:33:00.809Z,99.99
2017-01-27T03:34:00.826Z,99.99
2017-01-27T03:35:00.822Z,99.99
2017-01-27T03:36:00.811Z,99.99
2017-01-27T03:37:00.821Z,99.99
2017-01-27T03:38:00.886Z,99.99
2017-01-27T03:39:00.803Z,99.99
2017-01-27T03:40:00.814Z,99.99
2017-01-27T03:41:00.829Z,99.99
2017-01-27T03:42:00.807Z,99.99
2017-01-27T03:43:00.826Z,99.99
2017-01-27T03:44:00.851Z,99.99
2017-01-27T03:45:00.853Z,99.99
2017-01-27T03:46:00.862Z,99.99
2017-01-27T03:47:00.897Z,99.99
2017-01-27T03:48:00.866Z,99.99
2017-01-27T03:49:00.926Z,99.99
2017-01-27T03:50:00.844Z,99.99
2017-01-27T03:51:00.827Z,99.99
2017-01-27T03:52:00.830Z,99.99
2017-01-27T03:53:00.824Z,99.99
2017-01-27T03:54:00.872Z,99.99
2017-01-27T03:55:00.827Z,99.99
2017-01-27T03:56:00.829Z,99.99
2017-01-27T03:57:00.852Z,99.99
2017-01-27T03:58:00.814Z,99.99
2017-01-27T03:59:00.838Z,99.99
2017-01-27T04:00:00.837Z,99.99
2017-01-27T04:01:00.850Z,99.99
2017-01-27T04:02:00.830Z,99.99
2017-01-27T04:03:00.832Z,99.99
2017-01-27T04:04:00.833Z,99.99
2017-01-27T04:05:00.829Z,99.99
2017-01-27T04:06:00.884Z,99.99
2017-01-27T04:07:00.845Z,99.99
2017-01-27T04:08:00.834Z,99.99
2017-01-27T04:09:00.844Z,99.99
2017-01-27T04:10:00.836Z,99.99
2017-01-27T04:11:00.886Z,99.99
2017-01-27T04:12:00.819Z,99.99
2017-01-27T04:13:00.844Z,99.99
2017-01-27T04:14:00.845Z,99.99
2017-01-27T04:15:00.837Z,99.99
2017-01-27T04:16:00.847Z,99.99
2017-01-27T04:17:00.836Z,99.99
2017-01-27T04:18:00.830Z,99.99
2017-01-27T04:19:00.850Z,99.99
2017-01-27T04:20:00.847Z,99.99
2017-01-27T04:21:00.836Z,99.99
2017-01-27T04:22:00.849Z,99.99
2017-01-27T04:23:00.864Z,99.99
2017-01-27T04:24:00.887Z,99.99
2017-01-27T04:25:00.875Z,99.99
2017-01-27T04:26:00.897Z,99.99
2017-01-27T04:27:00.831Z,99.99
2017-01-27T04:28:00.835Z,99.99
2017-01-27T04:29:00.839Z,99.99
2017-01-27T04:30:00.842Z,99.99
2017-01-27T04:31:00.843Z,99.99
2017-01-27T04:32:00.876Z,99.99
2017-01-27T04:33:00.856Z,99.99
2017-01-27T04:34:00.848Z,99.99
2017-01-27T04:35:00.857Z,99.99
2017-01-27T04:36:00.850Z,99.99
2017-01-27T04:37:00.841Z,99.99
2017-01-27T04:38:00.854Z,99.99
2017-01-27T04:39:00.844Z,99.99
2017-01-27T04:40:00.847Z,99.99
2017-01-27T04:41:00.844Z,99.99
2017-01-27T04:42:00.862Z,99.99
2017-01-27T04:43:00.864Z,99.99
2017-01-27T04:44:00.864Z,99.99
2017-01-27T04:45:00.863Z,99.99
2017-01-27T04:46:00.849Z,99.99
2017-01-27T04:47:00.869Z,99.99
2017-01-27T04:48:00.863Z,99.99
2017-01-27T04:49:00.869Z,99.99
2017-01-27T04:50:00.886Z,99.99
2017-01-27T04:51:00.853Z,99.99
2017-01-27T04:52:00.856Z,99.99
2017-01-27T04:53:00.849Z,99.99
2017-01-27T04:54:00.868Z,99.99
2017-01-27T04:55:00.861Z,99.99
2017-01-27T04:56:00.853Z,99.99
2017-01-27T04:57:00.860Z,99.99
2017-01-27T04:58:00.851Z,99.99
2017-01-27T04:59:00.872Z,99.99
2017-01-27T05:00:00.854Z,99.99
2017-01-27T05:01:00.884Z,99.99
2017-01-27T05:02:00.871Z,99.99
2017-01-27T05:03:00.915Z,99.99
2017-01-27T05:04:00.919Z,99.99
2017-01-27T05:05:00.913Z,99.99
2017-01-27T05:06:00.916Z,99.99
2017-01-27T05:07:00.910Z,99.99
2017-01-27T05:08:00.918Z,99.99
2017-01-27T05:09:00.926Z,99.99
2017-01-27T05:10:00.915Z,99.99
2017-01-27T05:11:00.947Z,99.99
2017-01-27T05:12:00.921Z,99.99
2017-01-27T05:13:00.944Z,99.99
2017-01-27T05:14:00.917Z,99.99
2017-01-27T05:15:00.922Z,99.99
2017-01-27T05:16:00.914Z,99.99
2017-01-27T05:17:00.910Z,99.99
2017-01-27T05:18:00.929Z,99.99
2017-01-27T05:19:01.029Z,99.99
2017-01-27T05:20:00.969Z,99.99
2017-01-27T05:21:00.928Z,99.99
2017-01-27T05:22:00.915Z,99.99
2017-01-27T05:23:00.923Z,99.99
2017-01-27T05:24:00.890Z,99.99
2017-01-27T05:25:00.975Z,99.99
2017-01-27T05:26:00.927Z,99.99
2017-01-27T05:27:00.934Z,99.99
2017-01-27T05:28:00.921Z,99.99
2017-01-27T05:29:00.881Z,99.99
2017-01-27T05:30:00.873Z,99.99
2017-01-27T05:31:00.868Z,99.99
2017-01-27T05:32:00.883Z,99.99
2017-01-27T05:33:00.927Z,99.99
2017-01-27T05:34:00.881Z,99.99
2017-01-27T05:35:00.876Z,99.99
2017-01-27T05:36:00.898Z,99.99
2017-01-27T05:37:00.869Z,99.99
2017-01-27T05:38:00.872Z,99.99
2017-01-27T05:39:00.891Z,99.99
2017-01-27T05:40:00.867Z,99.99
2017-01-27T05:41:00.878Z,99.99
2017-01-27T05:42:00.893Z,99.99
2017-01-27T05:43:00.878Z,99.99
2017-01-27T05:44:00.894Z,99.99
2017-01-27T05:45:00.867Z,99.99
2017-01-27T05:46:00.884Z,99.99
2017-01-27T05:47:00.887Z,99.99
2017-01-27T05:48:00.880Z,99.99
2017-01-27T05:49:00.885Z,99.99
2017-01-27T05:50:00.879Z,99.99
2017-01-27T05:51:00.891Z,99.99
2017-01-27T05:52:00.891Z,99.99
2017-01-27T05:53:00.887Z,99.99
2017-01-27T05:54:00.890Z,99.99
2017-01-27T05:55:00.882Z,99.99
2017-01-27T05:56:00.914Z,99.99
2017-01-27T05:57:00.888Z,99.99
2017-01-27T05:58:00.894Z,99.99
2017-01-27T05:59:00.894Z,99.99
2017-01-27T06:00:00.886Z,99.99
2017-01-27T06:01:00.876Z,99.99
2017-01-27T06:02:00.893Z,99.99
2017-01-27T06:03:00.902Z,99.99
2017-01-27T06:04:00.894Z,99.99
2017-01-27T06:05:00.900Z,99.99
2017-01-27T06:06:00.911Z,99.99
2017-01-27T06:07:00.906Z,99.99
2017-01-27T06:08:00.899Z,99.99
2017-01-27T06:09:00.889Z,99.99
2017-01-27T06:10:00.901Z,99.99
2017-01-27T06:11:00.926Z,99.99
2017-01-27T06:12:00.900Z,99.99
2017-01-27T06:13:00.911Z,99.99
2017-01-27T06:14:00.907Z,99.99
2017-01-27T06:15:00.898Z,99.99
2017-01-27T06:16:00.901Z,99.99
2017-01-27T06:17:00.900Z,99.99
2017-01-27T06:18:00.905Z,99.99
2017-01-27T06:19:00.901Z,99.99
2017-01-27T06:20:00.907Z,99.99
2017-01-27T06:21:00.919Z,99.99
2017-01-27T06:22:00.912Z,99.99
2017-01-27T06:23:00.912Z,99.99
2017-01-27T06:24:00.915Z,99.99
2017-01-27T06:25:00.938Z,99.99
2017-01-27T06:26:00.913Z,99.99
2017-01-27T06:27:00.921Z,99.99
2017-01-27T06:28:00.916Z,99.99
2017-01-27T06:29:00.918Z,99.99
2017-01-27T06:30:00.918Z,99.99
2017-01-27T06:31:00.906Z,99.99
2017-01-27T06:32:00.906Z,99.99
2017-01-27T06:33:00.912Z,99.99
2017-01-27T06:34:00.926Z,99.99
2017-01-27T06:35:01.474Z,99.99
2017-01-27T06:36:00.910Z,99.99
2017-01-27T06:37:00.914Z,99.99
2017-01-27T06:38:00.908Z,99.99
2017-01-27T06:39:00.918Z,99.99
2017-01-27T06:40:00.915Z,99.99
2017-01-27T06:41:00.915Z,99.99
2017-01-27T06:42:00.925Z,99.99
2017-01-27T06:43:00.927Z,99.99
2017-01-27T06:44:00.919Z,99.99
2017-01-27T06:45:00.925Z,99.99
2017-01-27T06:46:00.931Z,99.99
2017-01-27T06:47:00.924Z,99.99
2017-01-27T06:48:00.918Z,99.99
2017-01-27T06:49:00.934Z,99.99
2017-01-27T06:50:00.916Z,99.99
2017-01-27T06:51:00.949Z,99.99
2017-01-27T06:52:00.946Z,99.99
2017-01-27T06:53:00.923Z,99.99
2017-01-27T06:54:00.926Z,99.99
2017-01-27T06:55:00.939Z,99.99
2017-01-27T06:56:00.976Z,99.99
2017-01-27T06:57:00.949Z,99.99
2017-01-27T06:58:00.928Z,99.99
2017-01-27T06:59:00.961Z,99.99
2017-01-27T07:00:00.960Z,99.99
2017-01-27T07:01:00.921Z,99.99
2017-01-27T07:02:01.042Z,99.99
2017-01-27T07:03:00.976Z,99.99
2017-01-27T07:04:00.922Z,99.99
2017-01-27T07:05:00.948Z,99.99
2017-01-27T07:06:00.927Z,99.99
2017-01-27T07:07:00.943Z,99.99
2017-01-27T07:08:00.936Z,99.99
2017-01-27T07:09:00.918Z,99.99
2017-01-27T07:10:00.975Z,99.99
2017-01-27T07:11:01.085Z,99.99
2017-01-27T07:12:00.938Z,99.99
2017-01-27T07:13:00.934Z,99.99
2017-01-27T07:14:00.926Z,99.99
2017-01-27T07:15:00.938Z,99.99
2017-01-27T07:16:00.929Z,99.99
2017-01-27T07:17:01.020Z,99.99
2017-01-27T07:18:00.940Z,99.99
2017-01-27T07:19:00.949Z,99.99
2017-01-27T07:20:01.025Z,99.99
2017-01-27T07:21:01.029Z,99.99
2017-01-27T07:22:01.043Z,99.99
2017-01-27T07:23:01.026Z,99.99
2017-01-27T07:24:00.940Z,99.99
2017-01-27T07:25:00.925Z,99.99
2017-01-27T07:26:00.929Z,99.99
2017-01-27T07:27:00.930Z,99.99
2017-01-27T07:28:00.944Z,99.99
2017-01-27T07:29:00.944Z,99.99
2017-01-27T07:30:00.940Z,99.99
2017-01-27T07:31:00.933Z,99.99
2017-01-27T07:32:00.954Z,99.99
2017-01-27T07:33:00.959Z,99.99
2017-01-27T07:34:00.952Z,99.99
2017-01-27T07:35:00.956Z,99.99
2017-01-27T07:36:00.960Z,99.99
2017-01-27T07:37:00.947Z,99.99
2017-01-27T07:38:00.948Z,99.99
2017-01-27T07:39:00.938Z,99.99
2017-01-27T07:40:00.944Z,99.99
2017-01-27T07:41:00.961Z,99.99
2017-01-27T07:42:00.958Z,99.99
2017-01-27T07:43:00.958Z,99.99
2017-01-27T07:44:00.947Z,99.99
2017-01-27T07:45:00.969Z,99.99
2017-01-27T07:46:00.951Z,99.99
2017-01-27T07:47:00.939Z,99.99
2017-01-27T07:48:00.972Z,99.99
2017-01-27T07:49:00.950Z,99.99
2017-01-27T07:50:00.950Z,99.99
2017-01-27T07:51:00.943Z,99.99
2017-01-27T07:52:00.956Z,99.99
2017-01-27T07:53:00.948Z,99.99
2017-01-27T07:54:00.969Z,99.99
2017-01-27T07:55:00.969Z,99.99
2017-01-27T07:56:00.959Z,99.99
2017-01-27T07:57:01.033Z,99.99
2017-01-27T07:58:00.963Z,99.99
2017-01-27T07:59:00.950Z,99.99
2017-01-27T08:00:00.983Z,99.99
2017-01-27T08:01:00.974Z,99.99
2017-01-27T08:02:00.963Z,99.99
2017-01-27T08:03:00.976Z,99.99
2017-01-27T08:04:01.016Z,99.99
2017-01-27T08:05:00.957Z,99.99
2017-01-27T08:06:00.977Z,99.99
2017-01-27T08:07:00.984Z,99.99
2017-01-27T08:08:00.972Z,99.99
2017-01-27T08:09:00.985Z,99.99
2017-01-27T08:10:00.969Z,99.99
2017-01-27T08:11:00.976Z,99.99
2017-01-27T08:12:00.988Z,99.99
2017-01-27T08:13:00.967Z,99.99
2017-01-27T08:14:01.004Z,99.99
2017-01-27T08:15:00.979Z,99.99
2017-01-27T08:16:00.995Z,99.99
2017-01-27T08:17:00.980Z,99.99
2017-01-27T08:18:00.983Z,99.99
2017-01-27T08:19:00.983Z,99.99
2017-01-27T08:20:01.034Z,99.99
2017-01-27T08:21:00.989Z,99.99
2017-01-27T08:22:00.978Z,99.99
2017-01-27T08:23:00.986Z,99.99
2017-01-27T08:24:00.997Z,99.99
2017-01-27T08:25:00.983Z,99.99
2017-01-27T08:26:00.972Z,99.99
2017-01-27T08:27:00.987Z,99.99
2017-01-27T08:28:00.986Z,99.99
2017-01-27T08:29:00.995Z,99.99
2017-01-27T08:30:00.979Z,99.99
2017-01-27T08:31:00.987Z,99.99
2017-01-27T08:32:00.983Z,99.99
2017-01-27T08:33:00.991Z,99.99
2017-01-27T08:34:00.977Z,99.99
2017-01-27T08:35:00.968Z,99.99
2017-01-27T08:36:00.983Z,99.99
2017-01-27T08:37:00.988Z,99.99
2017-01-27T08:38:00.975Z,99.99
2017-01-27T08:39:00.991Z,99.99
2017-01-27T08:40:01.000Z,99.99
2017-01-27T08:41:00.995Z,99.99
2017-01-27T08:42:00.995Z,99.99
2017-01-27T08:43:01.060Z,99.99
2017-01-27T08:44:00.974Z,99.99
2017-01-27T08:45:01.003Z,99.99
2017-01-27T08:46:00.977Z,99.99
2017-01-27T08:47:00.987Z,99.99
2017-01-27T08:48:00.995Z,99.99
2017-01-27T08:49:00.989Z,99.99
2017-01-27T08:50:01.007Z,99.99
2017-01-27T08:51:01.014Z,99.99
2017-01-27T08:52:01.003Z,99.99
2017-01-27T08:53:00.995Z,99.99
2017-01-27T08:54:01.024Z,99.99
2017-01-27T08:55:00.984Z,99.99
2017-01-27T08:56:01.001Z,99.99
2017-01-27T08:57:00.986Z,99.99
2017-01-27T08:58:00.998Z,99.99
2017-01-27T08:59:00.996Z,99.99
2017-01-27T09:00:00.981Z,99.99
2017-01-27T09:01:01.010Z,99.99
2017-01-27T09:02:01.004Z,99.99
2017-01-27T09:03:01.019Z,99.99
2017-01-27T09:04:01.002Z,99.99
2017-01-27T09:05:00.991Z,99.99
2017-01-27T09:06:01.030Z,99.99
2017-01-27T09:07:00.993Z,99.99
2017-01-27T09:08:00.992Z,99.99
2017-01-27T09:09:01.028Z,99.99
2017-01-27T09:10:00.985Z,99.99
2017-01-27T09:11:01.013Z,99.99
2017-01-27T09:12:00.995Z,99.99
2017-01-27T09:13:00.999Z,99.99
2017-01-27T09:14:00.998Z,99.99
2017-01-27T09:15:01.007Z,99.99
2017-01-27T09:16:01.002Z,99.99
2017-01-27T09:17:01.003Z,99.99
2017-01-27T09:18:00.999Z,99.99
2017-01-27T09:19:01.004Z,99.99
2017-01-27T09:20:01.009Z,99.99
2017-01-27T09:21:01.002Z,99.99
2017-01-27T09:22:01.023Z,99.99
2017-01-27T09:23:01.015Z,99.99
2017-01-27T09:24:01.005Z,99.99
2017-01-27T09:25:01.020Z,99.99
2017-01-27T09:26:01.019Z,99.99
2017-01-27T09:27:01.016Z,99.99
2017-01-27T09:28:01.018Z,99.99
2017-01-27T09:29:00.993Z,99.99
2017-01-27T09:30:01.033Z,99.99
2017-01-27T09:31:01.013Z,99.99
2017-01-27T09:32:01.002Z,99.99
2017-01-27T09:33:01.022Z,99.99
2017-01-27T09:34:01.035Z,99.99
2017-01-27T09:35:01.003Z,99.99
2017-01-27T09:36:01.043Z,99.99
2017-01-27T09:37:01.019Z,99.99
2017-01-27T09:38:01.030Z,99.99
2017-01-27T09:39:01.018Z,99.99
2017-01-27T09:40:01.025Z,99.99
2017-01-27T09:41:01.019Z,99.99
2017-01-27T09:42:01.025Z,99.99
2017-01-27T09:43:01.019Z,99.99
2017-01-27T09:44:01.038Z,99.99
2017-01-27T09:45:01.020Z,99.99
2017-01-27T09:46:01.019Z,99.99
2017-01-27T09:47:01.034Z,99.99
2017-01-27T09:48:01.045Z,99.99
2017-01-27T09:49:01.033Z,99.99
2017-01-27T09:50:01.027Z,99.99
2017-01-27T09:51:01.040Z,99.99
2017-01-27T09:52:01.024Z,99.99
2017-01-27T09:53:01.060Z,99.99
2017-01-27T09:54:01.178Z,99.99
2017-01-27T09:55:01.324Z,99.99
2017-01-27T09:56:01.034Z,99.99
2017-01-27T09:57:01.032Z,99.99
2017-01-27T09:58:01.043Z,99.99
2017-01-27T09:59:01.026Z,99.99
2017-01-27T10:00:01.039Z,99.99
2017-01-27T10:01:01.041Z,99.99
2017-01-27T10:02:01.041Z,99.99
2017-01-27T10:03:01.037Z,99.99
2017-01-27T10:04:01.030Z,99.99
2017-01-27T10:05:01.045Z,99.99
2017-01-27T10:06:01.051Z,99.99
2017-01-27T10:07:01.040Z,99.99
2017-01-27T10:08:01.043Z,99.99
2017-01-27T10:09:01.043Z,99.99
2017-01-27T10:10:01.057Z,99.99
2017-01-27T10:11:01.044Z,99.99
2017-01-27T10:12:01.126Z,99.99
2017-01-27T10:13:01.047Z,99.99
2017-01-27T10:14:01.056Z,99.99
2017-01-27T10:15:01.044Z,99.99
2017-01-27T10:16:01.034Z,99.99
2017-01-27T10:17:01.037Z,99.99
2017-01-27T10:18:01.049Z,99.99
2017-01-27T10:19:01.055Z,99.81
2017-01-27T10:20:01.061Z,99.48
2017-01-27T10:21:01.046Z,99.62
2017-01-27T10:22:01.059Z,99.9
2017-01-27T10:23:01.077Z,99.9
2017-01-27T10:24:01.048Z,99.43
2017-01-27T10:25:01.112Z,99.9
2017-01-27T10:26:01.050Z,99.99
2017-01-27T10:27:01.044Z,99.33
2017-01-27T10:28:01.074Z,99.43
2017-01-27T10:29:01.068Z,99.05
2017-01-27T10:30:01.074Z,98.77
2017-01-27T10:31:01.052Z,98.39
2017-01-27T10:32:01.056Z,98.01
2017-01-27T10:33:01.055Z,98.3
2017-01-27T10:34:01.089Z,98.77
2017-01-27T10:35:01.069Z,98.77
2017-01-27T10:36:01.061Z,98.96
2017-01-27T10:37:01.061Z,98.3
2017-01-27T10:38:01.071Z,97.92
2017-01-27T10:39:01.054Z,98.68
2017-01-27T10:40:01.061Z,98.01
2017-01-27T10:41:01.095Z,98.39
2017-01-27T10:42:01.071Z,97.49
2017-01-27T10:43:01.073Z,97.02
2017-01-27T10:44:01.065Z,98.06
2017-01-27T10:45:01.092Z,97.78
2017-01-27T10:46:01.258Z,97.11
2017-01-27T10:47:01.068Z,96.21
2017-01-27T10:48:01.093Z,96.07
2017-01-27T10:49:01.114Z,95.41
2017-01-27T10:50:01.082Z,94.46
2017-01-27T10:51:01.687Z,93.99
2017-01-27T10:52:01.069Z,94.27
2017-01-27T10:53:01.073Z,94.56
2017-01-27T10:54:01.161Z,94.65
2017-01-27T10:55:01.096Z,95.12
2017-01-27T10:56:02.682Z,95.22
2017-01-27T10:57:01.159Z,95.5
2017-01-27T10:58:01.598Z,95.79
2017-01-27T10:59:01.234Z,95.12
2017-01-27T11:00:02.801Z,95.31
2017-01-27T11:01:01.147Z,94.6
2017-01-27T11:02:01.355Z,94.32
2017-01-27T11:03:01.147Z,94.32
2017-01-27T11:04:01.107Z,94.37
2017-01-27T11:05:01.103Z,94.98
2017-01-27T11:06:01.208Z,94.79
2017-01-27T11:07:01.086Z,93.18
2017-01-27T11:08:01.095Z,93.37
2017-01-27T11:09:01.198Z,93.37
2017-01-27T11:10:01.087Z,92.9
2017-01-27T11:11:01.074Z,92.71
2017-01-27T11:12:01.076Z,93.08
2017-01-27T11:13:01.092Z,92.52
2017-01-27T11:14:01.087Z,91.47
2017-01-27T11:15:01.074Z,91.28
2017-01-27T11:16:01.092Z,91.28
2017-01-27T11:17:01.092Z,91.28
2017-01-27T11:18:01.079Z,91.28
2017-01-27T11:19:01.089Z,91.38
2017-01-27T11:20:01.102Z,91.38
2017-01-27T11:21:01.091Z,90.43
2017-01-27T11:22:01.079Z,90.43
2017-01-27T11:23:01.154Z,90.91
2017-01-27T11:24:01.077Z,90.43
2017-01-27T11:25:01.102Z,91.38
2017-01-27T11:26:01.095Z,91.28
2017-01-27T11:27:01.154Z,90.81
2017-01-27T11:28:01.100Z,90.72
2017-01-27T11:29:01.090Z,91.38
2017-01-27T11:30:01.114Z,91.33
2017-01-27T11:31:01.107Z,91.52
2017-01-27T11:32:01.105Z,90.43
2017-01-27T11:33:01.118Z,90.76
2017-01-27T11:34:01.110Z,90.19
2017-01-27T11:35:01.192Z,89.72
2017-01-27T11:36:01.100Z,89.91
2017-01-27T11:37:01.117Z,89.53
2017-01-27T11:38:01.144Z,89.91
2017-01-27T11:39:01.142Z,89.34
2017-01-27T11:40:01.093Z,89.91
2017-01-27T11:41:01.143Z,89.81
2017-01-27T11:42:01.248Z,89.72
2017-01-27T11:43:01.091Z,89.43
2017-01-27T11:44:01.129Z,89.53
2017-01-27T11:45:01.107Z,89.81
2017-01-27T11:46:01.180Z,89.43
2017-01-27T11:47:01.155Z,88.1
2017-01-27T11:48:02.919Z,88.2
2017-01-27T11:49:01.208Z,88.48
2017-01-27T11:50:03.384Z,88.2
2017-01-27T11:51:03.516Z,87.54
2017-01-27T11:52:01.502Z,86.78
2017-01-27T11:53:01.203Z,87.58
2017-01-27T11:54:01.157Z,87.49
2017-01-27T11:55:02.704Z,87.96
2017-01-27T11:56:01.160Z,87.77
2017-01-27T11:57:01.166Z,86.72
2017-01-27T11:58:01.153Z,87.01
2017-01-27T11:59:01.117Z,86.82
2017-01-27T12:00:01.101Z,86.63
2017-01-27T12:01:01.125Z,86.44
2017-01-27T12:02:01.101Z,86.07
2017-01-27T12:03:01.127Z,86.25
2017-01-27T12:04:01.458Z,86.54
2017-01-27T12:05:01.131Z,85.3
2017-01-27T12:06:01.122Z,85.21
2017-01-27T12:07:01.142Z,84.83
2017-01-27T12:08:01.270Z,84.92
2017-01-27T12:09:01.120Z,84.4
2017-01-27T12:10:01.127Z,84.3
2017-01-27T12:11:01.117Z,83.73
2017-01-27T12:12:01.117Z,83.92
2017-01-27T12:13:01.151Z,84.01
2017-01-27T12:14:01.131Z,83.64
2017-01-27T12:15:01.124Z,83.83
2017-01-27T12:16:01.163Z,83.45
2017-01-27T12:17:01.162Z,83.36
2017-01-27T12:18:01.124Z,83.73
2017-01-27T12:19:01.130Z,83.16
2017-01-27T12:20:01.154Z,83.26
2017-01-27T12:21:01.174Z,83.36
2017-01-27T12:22:01.192Z,83.64
2017-01-27T12:23:01.146Z,83.36
2017-01-27T12:24:01.170Z,83.16
2017-01-27T12:25:01.150Z,83.45
2017-01-27T12:26:01.124Z,83.54
2017-01-27T12:27:01.229Z,83.54
2017-01-27T12:28:01.129Z,83.73
2017-01-27T12:29:01.135Z,83.73
2017-01-27T12:30:01.120Z,83.36
2017-01-27T12:31:01.260Z,84.01
2017-01-27T12:32:01.160Z,84.87
2017-01-27T12:33:01.172Z,85.16
2017-01-27T12:34:01.185Z,87.43
2017-01-27T12:35:01.147Z,87.24
2017-01-27T12:36:01.273Z,86.3
2017-01-27T12:37:01.130Z,85.44
2017-01-27T12:38:01.128Z,84.87
2017-01-27T12:39:01.121Z,84.01
2017-01-27T12:40:01.135Z,83.64
2017-01-27T12:41:01.181Z,83.64
2017-01-27T12:42:01.141Z,83.92
2017-01-27T12:43:01.157Z,83.01
2017-01-27T12:44:01.139Z,83.36
2017-01-27T12:45:01.143Z,83.16
2017-01-27T12:46:01.135Z,82.92
2017-01-27T12:47:01.148Z,83.01
2017-01-27T12:48:01.153Z,82.82
2017-01-27T12:49:01.159Z,83.07
2017-01-27T12:50:01.180Z,82.88
2017-01-27T12:51:01.290Z,83.59
2017-01-27T12:52:01.145Z,82.82
2017-01-27T12:53:01.140Z,82.82